Time;durP1;ratioP1;P1;durP2;ratioP2;P2;SDS_P1;SDS_P2;PMS_P1;PMS_P2;Temp;Humidity;BMP_temperature;BMP_pressure;BME280_temperature;BME280_humidity;BME280_pressure;Samples;Min_cycle;Max_cycle;Signal;HPM_P1;HPM_P2
2021/03/12 00:01:42;;;;;;;1.20;0.53;;;11.70;99.90;;;;;;4979672;28;20214;-89
2021/03/12 00:04:12;;;;;;;0.67;0.67;;;11.70;99.90;;;;;;4996053;28;20245;-88
2021/03/12 00:06:43;;;;;;;2.50;0.80;;;11.80;99.90;;;;;;4997218;28;20271;-89
2021/03/12 00:09:20;;;;;;;3.00;0.80;;;11.90;99.90;;;;;;4996834;28;20276;-89
2021/03/12 00:11:52;;;;;;;1.93;0.47;;;12.00;99.90;;;;;;4998931;28;20280;-90
2021/03/12 00:14:26;;;;;;;1.17;0.70;;;12.00;99.90;;;;;;5000328;28;20306;-89
2021/03/12 00:16:56;;;;;;;1.27;0.70;;;12.20;99.90;;;;;;5001819;28;20202;-90
2021/03/12 00:19:28;;;;;;;1.33;0.70;;;12.20;99.90;;;;;;5001266;28;20206;-90
2021/03/12 00:21:58;;;;;;;0.93;0.60;;;12.30;99.90;;;;;;4998708;28;20230;-90
2021/03/12 00:24:32;;;;;;;1.57;0.67;;;12.30;99.90;;;;;;4998206;28;20213;-91
2021/03/12 00:27:03;;;;;;;2.07;0.70;;;12.30;99.90;;;;;;4979048;28;20258;-91
2021/03/12 00:29:34;;;;;;;0.40;0.40;;;12.50;99.90;;;;;;4991505;28;20256;-91
2021/03/12 00:32:05;;;;;;;0.70;0.50;;;12.60;99.90;;;;;;5000804;28;20292;-91
2021/03/12 00:34:37;;;;;;;1.50;0.60;;;12.40;99.90;;;;;;5001953;28;20229;-91
2021/03/12 00:37:08;;;;;;;0.80;0.50;;;12.20;99.90;;;;;;4999988;28;20564;-91
2021/03/12 00:39:40;;;;;;;1.67;0.80;;;12.00;99.90;;;;;;5001693;28;20221;-90
2021/03/12 00:42:11;;;;;;;2.50;0.90;;;11.90;99.90;;;;;;5001587;28;20206;-89
2021/03/12 00:44:42;;;;;;;2.37;0.70;;;11.70;99.90;;;;;;5002167;28;20206;-89
2021/03/12 00:47:13;;;;;;;2.50;0.90;;;11.60;99.90;;;;;;5001389;28;20222;-89
2021/03/12 00:49:44;;;;;;;2.33;0.80;;;11.40;99.90;;;;;;5006372;28;20653;-89
2021/03/12 00:52:15;;;;;;;1.33;0.80;;;11.40;99.90;;;;;;5006770;28;20241;-88
2021/03/12 00:54:47;;;;;;;2.43;0.60;;;11.20;99.90;;;;;;5008558;28;20209;-89
2021/03/12 00:57:18;;;;;;;0.90;0.80;;;11.20;99.90;;;;;;4981522;28;20246;-89
2021/03/12 00:59:48;;;;;;;1.90;0.60;;;11.10;99.90;;;;;;4981368;28;20250;-89
2021/03/12 01:02:21;;;;;;;1.57;0.70;;;11.00;99.90;;;;;;4982650;28;20230;-88
2021/03/12 01:04:51;;;;;;;0.90;0.40;;;11.00;99.90;;;;;;4991645;28;20273;-89
2021/03/12 01:07:22;;;;;;;1.63;0.90;;;10.80;99.90;;;;;;5001136;28;20698;-88
2021/03/12 01:09:54;;;;;;;2.07;0.77;;;10.80;99.90;;;;;;5021429;28;20272;-89
2021/03/12 01:12:29;;;;;;;0.63;0.60;;;10.80;99.90;;;;;;5025540;28;20315;-89
2021/03/12 01:14:59;;;;;;;0.57;0.50;;;10.70;99.90;;;;;;4988651;28;20215;-90
2021/03/12 01:17:30;;;;;;;13.17;1.10;;;10.60;99.90;;;;;;4988171;28;20221;-94
2021/03/12 01:20:02;;;;;;;7.73;0.87;;;10.50;99.90;;;;;;4990096;28;20219;-93
2021/03/12 01:22:33;;;;;;;1.07;0.60;;;10.40;99.90;;;;;;5000412;28;20204;-95
2021/03/12 01:25:08;;;;;;;2.10;0.83;;;10.30;99.90;;;;;;5017884;28;20198;-92
2021/03/12 01:27:41;;;;;;;10.33;1.10;;;10.20;99.90;;;;;;5019315;28;20201;-92
2021/03/12 01:30:18;;;;;;;0.90;0.50;;;10.20;99.90;;;;;;5019540;28;20254;-92
2021/03/12 01:32:49;;;;;;;2.57;0.57;;;10.20;99.90;;;;;;5017695;28;20237;-92
2021/03/12 01:35:20;;;;;;;1.30;0.73;;;10.10;99.90;;;;;;5018354;28;20294;-93
2021/03/12 01:37:51;;;;;;;1.50;0.70;;;10.00;99.90;;;;;;5017965;28;20738;-92
2021/03/12 01:40:31;;;;;;;0.83;0.60;;;9.90;99.90;;;;;;5007722;28;20677;-92
2021/03/12 01:43:06;;;;;;;1.80;0.90;;;9.80;99.90;;;;;;5001415;28;20210;-92
2021/03/12 01:45:40;;;;;;;2.73;1.17;;;9.70;99.90;;;;;;5003392;28;20261;-92
2021/03/12 01:48:14;;;;;;;1.53;0.70;;;9.50;99.90;;;;;;5001434;28;20245;-91
2021/03/12 01:50:47;;;;;;;3.23;0.93;;;9.50;99.90;;;;;;5003362;28;20210;-90
2021/03/12 01:53:21;;;;;;;2.23;1.03;;;9.50;99.90;;;;;;5005292;28;20230;-93
2021/03/12 01:55:54;;;;;;;1.00;0.90;;;9.50;99.90;;;;;;5019631;28;20189;-91
2021/03/12 01:58:26;;;;;;;1.40;1.00;;;9.50;99.90;;;;;;5018725;28;20198;-92
2021/03/12 02:00:58;;;;;;;1.83;1.50;;;9.30;99.90;;;;;;5017219;28;20202;-92
2021/03/12 02:03:30;;;;;;;1.97;1.40;;;9.20;99.90;;;;;;5007287;28;20206;-91
2021/03/12 02:06:05;;;;;;;2.70;1.17;;;9.00;99.90;;;;;;5000463;28;20217;-92
2021/03/12 02:08:39;;;;;;;2.27;1.00;;;8.80;99.90;;;;;;4998720;28;20263;-91
2021/03/12 02:11:14;;;;;;;5.57;0.90;;;8.70;99.90;;;;;;5000043;28;20205;-93
2021/03/12 02:13:50;;;;;;;1.40;1.00;;;8.60;99.90;;;;;;4991282;28;20240;-92
2021/03/12 02:16:26;;;;;;;4.93;1.13;;;8.50;99.90;;;;;;4980157;28;20222;-94
2021/03/12 02:19:05;;;;;;;1.13;0.93;;;8.30;99.90;;;;;;4999243;28;20217;-93
2021/03/12 02:21:39;;;;;;;2.33;0.80;;;8.20;99.90;;;;;;5009098;28;20225;-94
2021/03/12 02:24:17;;;;;;;1.87;1.10;;;8.10;99.90;;;;;;5007128;28;20211;-94
2021/03/12 02:27:06;;;;;;;1.23;0.80;;;8.00;99.90;;;;;;4996795;28;20200;-92
2021/03/12 02:29:43;;;;;;;1.73;0.90;;;7.90;99.90;;;;;;4981410;28;20214;-92
2021/03/12 02:32:19;;;;;;;1.50;0.83;;;7.80;99.90;;;;;;4986712;28;20228;-92
2021/03/12 02:34:50;;;;;;;1.63;0.93;;;7.70;99.90;;;;;;4999344;28;20666;-94
2021/03/12 02:37:24;;;;;;;2.53;0.97;;;7.60;99.90;;;;;;4999473;28;20206;-93
2021/03/12 02:39:59;;;;;;;1.80;1.20;;;7.50;99.90;;;;;;5002879;28;20210;-93
2021/03/12 02:42:32;;;;;;;1.00;0.90;;;7.50;99.90;;;;;;4998923;28;20213;-93
2021/03/12 02:45:06;;;;;;;1.40;1.10;;;7.40;99.90;;;;;;4996498;28;20606;-92
2021/03/12 02:47:38;;;;;;;2.93;1.30;;;7.40;99.90;;;;;;4979554;28;20239;-94
2021/03/12 02:50:12;;;;;;;1.40;0.83;;;7.30;99.90;;;;;;4994601;28;20272;-92
2021/03/12 02:52:46;;;;;;;1.47;0.90;;;7.30;99.90;;;;;;4981804;28;20253;-93
2021/03/12 02:55:19;;;;;;;1.60;1.03;;;7.20;99.90;;;;;;4991156;28;20257;-89
2021/03/12 02:57:52;;;;;;;1.97;1.20;;;7.20;99.90;;;;;;4980185;28;20233;-91
2021/03/12 03:00:23;;;;;;;1.30;1.10;;;7.10;99.90;;;;;;4994280;28;20677;-91
2021/03/12 03:02:55;;;;;;;1.63;1.17;;;7.10;99.90;;;;;;4982970;28;20253;-91
2021/03/12 03:05:26;;;;;;;3.93;1.53;;;7.00;99.90;;;;;;4997087;28;20217;-91
2021/03/12 03:07:59;;;;;;;3.80;1.50;;;7.00;99.90;;;;;;4998334;28;20214;-91
2021/03/12 03:10:30;;;;;;;2.83;1.60;;;6.90;99.90;;;;;;4997665;28;20750;-91
2021/03/12 03:13:04;;;;;;;3.37;1.70;;;6.80;99.90;;;;;;4998636;28;20249;-92
2021/03/12 03:15:36;;;;;;;2.73;1.60;;;6.80;99.90;;;;;;5001672;28;20260;-93
2021/03/12 03:18:08;;;;;;;2.90;1.90;;;6.70;99.90;;;;;;4994286;28;20577;-92
2021/03/12 03:20:40;;;;;;;3.77;1.80;;;6.70;99.90;;;;;;5000784;28;20199;-92
2021/03/12 03:23:11;;;;;;;4.13;1.67;;;6.60;99.90;;;;;;4984902;28;20248;-93
2021/03/12 03:25:41;;;;;;;3.00;2.00;;;6.50;99.90;;;;;;5004822;28;20210;-92
2021/03/12 03:28:34;;;;;;;5.43;2.40;;;6.50;99.90;;;;;;5006209;28;20244;-94
2021/03/12 03:31:23;;;;;;;5.17;2.40;;;6.40;99.90;;;;;;5005530;28;20268;-93
2021/03/12 03:33:54;;;;;;;3.97;2.80;;;6.30;99.90;;;;;;5006888;28;20234;-92
2021/03/12 03:36:25;;;;;;;4.47;3.00;;;6.30;99.90;;;;;;5001984;28;20227;-93
2021/03/12 03:38:59;;;;;;;4.10;2.90;;;6.20;99.90;;;;;;4996709;28;20210;-92
2021/03/12 03:41:30;;;;;;;5.37;3.10;;;6.20;99.90;;;;;;4999485;28;20234;-93
2021/03/12 03:44:30;;;;;;;5.67;3.03;;;6.10;99.90;;;;;;5003043;28;20202;-93
2021/03/12 03:47:03;;;;;;;3.27;2.50;;;6.10;99.90;;;;;;5007158;28;20206;-92
2021/03/12 03:49:47;;;;;;;5.77;2.93;;;6.00;99.90;;;;;;5006909;28;20269;-91
2021/03/12 03:52:38;;;;;;;3.63;2.30;;;6.00;99.90;;;;;;5006796;28;20592;-92
2021/03/12 03:55:10;;;;;;;9.50;3.50;;;5.90;99.90;;;;;;5008501;28;20525;-91
2021/03/12 03:57:42;;;;;;;8.27;4.63;;;5.90;99.90;;;;;;4982401;28;20218;-91
2021/03/12 04:00:20;;;;;;;12.03;5.20;;;5.90;99.90;;;;;;4985595;28;20273;-91
2021/03/12 04:02:52;;;;;;;9.53;5.73;;;5.90;99.90;;;;;;5002061;28;20225;-92
2021/03/12 04:05:24;;;;;;;7.90;4.80;;;5.80;99.90;;;;;;5002397;28;20233;-91
2021/03/12 04:07:56;;;;;;;5.60;3.40;;;5.80;99.90;;;;;;5002611;28;20214;-93
2021/03/12 04:10:26;;;;;;;5.13;2.83;;;5.80;99.90;;;;;;5005651;28;20691;-92
2021/03/12 04:12:58;;;;;;;3.30;2.23;;;5.70;99.90;;;;;;5006278;28;20257;-91
2021/03/12 04:15:31;;;;;;;3.37;2.13;;;5.70;99.90;;;;;;5016959;28;20206;-92
2021/03/12 04:18:02;;;;;;;4.20;2.47;;;5.70;99.90;;;;;;5014776;28;20229;-93
2021/03/12 04:20:48;;;;;;;3.70;2.20;;;5.60;99.90;;;;;;4999748;28;20280;-93
2021/03/12 04:23:20;;;;;;;4.70;1.90;;;5.60;99.90;;;;;;5003523;28;20206;-93
2021/03/12 04:25:50;;;;;;;3.30;2.30;;;5.60;99.90;;;;;;5004770;28;20206;-92
2021/03/12 04:28:22;;;;;;;4.23;2.67;;;5.50;99.90;;;;;;5004975;28;20234;-93
2021/03/12 04:30:56;;;;;;;5.13;2.30;;;5.40;99.90;;;;;;5000737;28;20242;-94
2021/03/12 04:33:34;;;;;;;3.37;2.90;;;5.40;99.90;;;;;;4998719;28;20234;-93
2021/03/12 04:36:05;;;;;;;4.50;2.83;;;5.30;99.90;;;;;;5000714;28;20276;-94
2021/03/12 04:38:37;;;;;;;5.80;3.00;;;5.30;99.90;;;;;;4999513;28;20209;-92
2021/03/12 04:41:09;;;;;;;2.70;2.13;;;5.30;99.90;;;;;;4998485;28;20226;-93
2021/03/12 04:43:42;;;;;;;3.63;2.00;;;5.30;99.90;;;;;;4999990;28;20534;-93
2021/03/12 04:46:15;;;;;;;3.37;2.00;;;5.20;99.90;;;;;;5001624;28;20207;-92
2021/03/12 04:48:46;;;;;;;3.87;1.97;;;5.20;99.90;;;;;;4998623;28;20297;-91
2021/03/12 04:51:17;;;;;;;3.33;1.87;;;5.10;99.90;;;;;;4998876;28;20214;-92
2021/03/12 04:53:50;;;;;;;5.87;2.60;;;5.10;99.90;;;;;;4996666;28;20270;-92
2021/03/12 04:56:22;;;;;;;3.87;2.50;;;5.10;99.90;;;;;;4996909;28;20258;-92
2021/03/12 04:58:58;;;;;;;4.53;2.50;;;5.10;99.90;;;;;;4997527;28;20233;-90
2021/03/12 05:01:31;;;;;;;3.33;1.97;;;5.10;99.90;;;;;;4997358;28;20211;-90
2021/03/12 05:04:05;;;;;;;3.47;1.53;;;5.10;99.90;;;;;;4998525;28;20565;-93
2021/03/12 05:06:39;;;;;;;2.90;1.87;;;5.10;99.90;;;;;;4991971;28;20237;-91
2021/03/12 05:09:12;;;;;;;3.63;1.53;;;5.00;99.90;;;;;;4978539;28;20238;-91
2021/03/12 05:11:45;;;;;;;3.43;1.60;;;5.00;99.90;;;;;;4964863;28;20255;-91
2021/03/12 05:14:17;;;;;;;3.00;1.50;;;5.00;99.90;;;;;;4997326;28;20654;-91
2021/03/12 05:16:50;;;;;;;2.47;1.63;;;5.00;99.90;;;;;;5008808;28;20987;-92
2021/03/12 05:19:21;;;;;;;2.23;1.70;;;4.90;99.90;;;;;;5009881;28;20238;-93
2021/03/12 05:21:51;;;;;;;3.93;1.90;;;4.90;99.90;;;;;;4993920;28;20215;-93
2021/03/12 05:24:22;;;;;;;1.80;1.50;;;4.80;99.90;;;;;;4981217;28;20675;-93
2021/03/12 05:26:53;;;;;;;2.47;1.67;;;4.80;99.90;;;;;;4983677;28;20581;-94
2021/03/12 05:29:24;;;;;;;5.80;2.60;;;4.80;99.90;;;;;;4973802;28;20247;-93
2021/03/12 05:31:57;;;;;;;3.63;1.80;;;4.80;99.90;;;;;;4996232;28;20226;-93
2021/03/12 05:34:28;;;;;;;7.07;2.60;;;4.70;99.90;;;;;;4987657;28;20313;-93
2021/03/12 05:36:59;;;;;;;2.67;1.93;;;4.70;99.90;;;;;;4989550;28;20228;-93
2021/03/12 05:39:36;;;;;;;3.97;1.90;;;4.70;99.90;;;;;;4982743;28;20203;-92
2021/03/12 05:42:10;;;;;;;2.30;1.77;;;4.70;99.90;;;;;;4989271;28;20216;-93
2021/03/12 05:44:57;;;;;;;4.10;1.90;;;4.60;99.90;;;;;;4987788;28;20265;-94
2021/03/12 05:47:31;;;;;;;4.80;2.20;;;4.60;99.90;;;;;;4987447;28;20202;-91
2021/03/12 05:50:01;;;;;;;8.83;2.03;;;4.60;99.90;;;;;;5001451;28;20871;-91
2021/03/12 05:52:33;;;;;;;3.57;2.37;;;4.60;99.90;;;;;;5000051;28;20203;-92
2021/03/12 05:55:04;;;;;;;6.00;1.70;;;4.60;99.90;;;;;;4983981;28;20203;-91
2021/03/12 05:57:36;;;;;;;3.63;1.80;;;4.50;99.90;;;;;;4994499;28;20235;-92
2021/03/12 06:00:08;;;;;;;3.63;2.27;;;4.50;99.90;;;;;;4982512;28;20270;-92
2021/03/12 06:02:41;;;;;;;3.03;2.17;;;4.50;99.90;;;;;;4984376;28;20222;-92
2021/03/12 06:05:12;;;;;;;2.73;1.70;;;4.40;99.90;;;;;;4982621;28;20622;-92
2021/03/12 06:07:44;;;;;;;2.07;1.27;;;4.40;99.90;;;;;;4979751;28;20246;-91
2021/03/12 06:10:15;;;;;;;2.23;1.67;;;4.40;99.90;;;;;;4979996;28;20707;-91
2021/03/12 06:12:47;;;;;;;2.20;1.70;;;4.40;99.90;;;;;;4979805;28;20203;-91
2021/03/12 06:15:18;;;;;;;2.93;2.13;;;4.30;99.90;;;;;;4977476;28;20302;-90
2021/03/12 06:17:51;;;;;;;4.27;2.70;;;4.30;99.90;;;;;;4978635;28;20218;-91
2021/03/12 06:20:22;;;;;;;4.70;2.47;;;4.20;99.90;;;;;;4978210;28;20278;-91
2021/03/12 06:22:56;;;;;;;3.07;2.00;;;4.20;99.90;;;;;;4984134;28;20226;-91
2021/03/12 06:25:29;;;;;;;2.37;1.70;;;4.20;99.90;;;;;;4981339;28;20210;-91
2021/03/12 06:28:18;;;;;;;2.83;2.10;;;4.20;99.90;;;;;;4977908;28;20230;-92
2021/03/12 06:30:49;;;;;;;4.13;1.90;;;4.10;99.90;;;;;;4981075;28;20215;-91
2021/03/12 06:33:29;;;;;;;4.17;1.80;;;4.10;99.90;;;;;;4989367;28;20293;-90
2021/03/12 06:36:01;;;;;;;3.80;1.77;;;4.10;99.90;;;;;;4984489;28;20194;-89
2021/03/12 06:38:32;;;;;;;6.23;1.90;;;4.10;99.90;;;;;;4998165;28;20199;-90
2021/03/12 06:41:04;;;;;;;4.67;2.20;;;4.00;99.90;;;;;;4989512;28;20203;-91
2021/03/12 06:43:37;;;;;;;2.90;1.90;;;4.00;99.90;;;;;;4972846;28;20207;-91
2021/03/12 06:46:09;;;;;;;2.50;1.90;;;3.90;99.90;;;;;;4983247;28;20292;-91
2021/03/12 06:48:46;;;;;;;2.27;1.60;;;3.90;99.90;;;;;;4972240;28;20267;-90
2021/03/12 06:51:17;;;;;;;3.23;2.17;;;3.80;99.90;;;;;;4971829;28;20240;-89
2021/03/12 06:53:51;;;;;;;2.03;1.83;;;3.70;99.90;;;;;;4979663;28;20297;-90
2021/03/12 06:56:30;;;;;;;2.47;1.93;;;3.60;99.90;;;;;;4996046;28;20203;-91
2021/03/12 06:59:02;;;;;;;4.80;2.27;;;3.50;99.90;;;;;;4989255;28;20210;-90
2021/03/12 07:01:33;;;;;;;2.47;1.90;;;3.50;99.90;;;;;;4981814;28;20234;-90
2021/03/12 07:04:12;;;;;;;3.30;2.13;;;3.40;99.90;;;;;;4991989;28;20207;-89
2021/03/12 07:06:47;;;;;;;3.43;2.43;;;3.40;99.90;;;;;;4991090;28;20187;-91
2021/03/12 07:09:19;;;;;;;2.87;2.00;;;3.30;99.90;;;;;;5010117;28;20220;-88
2021/03/12 07:11:55;;;;;;;3.20;2.23;;;3.30;99.90;;;;;;5004595;28;20191;-91
2021/03/12 07:14:26;;;;;;;2.90;2.10;;;3.30;99.90;;;;;;4997487;28;20223;-90
2021/03/12 07:17:01;;;;;;;4.27;2.17;;;3.30;99.90;;;;;;4997058;28;20187;-92
2021/03/12 07:19:33;;;;;;;5.27;2.10;;;3.30;99.90;;;;;;4997972;28;20265;-93
2021/03/12 07:22:06;;;;;;;3.07;2.10;;;3.20;99.90;;;;;;4992571;28;20210;-92
2021/03/12 07:24:37;;;;;;;5.40;3.30;;;3.20;99.90;;;;;;4982920;28;20210;-92
2021/03/12 07:27:09;;;;;;;4.43;3.00;;;3.20;99.90;;;;;;4998224;28;20341;-92
2021/03/12 07:29:40;;;;;;;4.97;2.50;;;3.20;99.90;;;;;;4998211;28;20221;-92
2021/03/12 07:32:12;;;;;;;3.53;2.10;;;3.20;99.90;;;;;;4996709;28;20199;-92
2021/03/12 07:34:46;;;;;;;3.33;2.07;;;3.20;99.90;;;;;;4982021;28;20254;-92
2021/03/12 07:37:23;;;;;;;3.70;2.20;;;3.20;99.90;;;;;;4984651;28;20301;-92
2021/03/12 07:39:55;;;;;;;3.67;2.20;;;3.20;99.90;;;;;;4982723;28;20690;-92
2021/03/12 07:42:27;;;;;;;4.17;2.10;;;3.10;99.90;;;;;;4984955;28;20257;-92
2021/03/12 07:44:59;;;;;;;9.13;2.60;;;3.10;99.90;;;;;;4989302;28;20214;-92
2021/03/12 07:47:31;;;;;;;4.80;2.60;;;3.10;99.90;;;;;;4990104;28;20200;-91
2021/03/12 07:50:28;;;;;;;4.90;3.10;;;3.00;99.90;;;;;;4988698;28;20194;-91
2021/03/12 07:52:59;;;;;;;5.97;3.50;;;3.00;99.90;;;;;;4963276;28;20275;-91
2021/03/12 07:55:53;;;;;;;7.13;3.20;;;3.00;99.90;;;;;;4959060;28;20275;-91
2021/03/12 07:58:52;;;;;;;5.63;3.43;;;2.90;99.90;;;;;;4959362;28;20235;-91
2021/03/12 08:01:26;;;;;;;7.47;4.87;;;2.90;99.90;;;;;;4977777;28;20211;-90
2021/03/12 08:03:57;;;;;;;8.53;4.87;;;2.90;99.90;;;;;;4996762;28;20237;-91
2021/03/12 08:06:38;;;;;;;7.90;3.97;;;2.90;99.90;;;;;;4997202;28;20206;-90
2021/03/12 08:09:40;;;;;;;5.00;3.10;;;2.90;99.90;;;;;;4983505;28;20258;-90
2021/03/12 08:12:29;;;;;;;4.47;2.70;;;2.80;99.90;;;;;;4919837;29;20212;-90
2021/03/12 08:15:12;;;;;;;5.47;2.83;;;2.80;99.90;;;;;;4975098;28;20318;-91
2021/03/12 08:18:08;;;;;;;3.60;2.67;;;2.80;99.90;;;;;;4978960;28;20207;-91
2021/03/12 08:20:42;;;;;;;5.87;2.90;;;2.80;99.90;;;;;;4960709;28;20211;-92
2021/03/12 08:23:17;;;;;;;3.73;2.70;;;2.70;99.90;;;;;;4960810;28;20222;-93
2021/03/12 08:25:49;;;;;;;5.23;2.83;;;2.70;99.90;;;;;;4984545;28;20206;-93
2021/03/12 08:28:31;;;;;;;3.70;2.40;;;2.70;99.90;;;;;;4998151;28;20256;-93
2021/03/12 08:31:03;;;;;;;4.73;2.77;;;2.70;99.90;;;;;;4998725;28;20202;-92
2021/03/12 08:33:43;;;;;;;4.27;2.50;;;2.70;99.90;;;;;;5000105;28;20234;-93
2021/03/12 08:36:27;;;;;;;4.10;2.53;;;2.70;99.90;;;;;;4980536;28;20565;-92
2021/03/12 08:39:00;;;;;;;5.07;2.70;;;2.70;99.90;;;;;;4963096;28;20603;-92
2021/03/12 08:41:41;;;;;;;3.90;2.30;;;2.70;99.90;;;;;;4980194;28;20241;-92
2021/03/12 08:44:14;;;;;;;5.17;2.63;;;2.60;99.90;;;;;;4979709;28;20239;-93
2021/03/12 08:46:45;;;;;;;4.40;2.73;;;2.60;99.90;;;;;;4984233;28;20187;-93
2021/03/12 08:49:16;;;;;;;6.00;2.20;;;2.60;99.90;;;;;;4996673;28;20184;-91
2021/03/12 08:51:47;;;;;;;5.70;2.73;;;2.60;99.90;;;;;;4999736;28;20195;-90
2021/03/12 08:54:30;;;;;;;3.03;2.20;;;2.60;99.90;;;;;;4987723;28;20239;-90
2021/03/12 08:57:19;;;;;;;3.10;2.17;;;2.50;99.90;;;;;;4984824;28;20234;-90
2021/03/12 09:00:05;;;;;;;4.43;2.20;;;2.50;99.90;;;;;;4971869;28;20216;-91
2021/03/12 09:02:38;;;;;;;8.13;2.20;;;2.50;99.90;;;;;;4982279;28;20289;-91
2021/03/12 09:05:29;;;;;;;3.60;1.90;;;2.50;99.90;;;;;;5000365;28;20214;-90
2021/03/12 09:08:02;;;;;;;4.83;2.60;;;2.50;99.90;;;;;;4999497;28;20272;-91
2021/03/12 09:10:36;;;;;;;3.60;2.30;;;2.40;99.90;;;;;;4999073;28;20266;-91
2021/03/12 09:13:14;;;;;;;3.03;1.90;;;2.50;99.90;;;;;;4999422;28;20718;-91
2021/03/12 09:15:45;;;;;;;3.40;2.00;;;2.40;99.90;;;;;;4984031;28;20284;-91
2021/03/12 09:18:33;;;;;;;4.73;2.10;;;2.40;99.90;;;;;;4996879;28;20682;-92
2021/03/12 09:21:07;;;;;;;2.80;2.20;;;2.40;99.90;;;;;;4968525;28;20212;-93
2021/03/12 09:23:40;;;;;;;3.73;2.37;;;2.30;99.90;;;;;;4963040;29;20214;-92
2021/03/12 09:26:16;;;;;;;5.20;2.80;;;2.30;99.90;;;;;;4965505;29;20208;-92
2021/03/12 09:28:49;;;;;;;5.47;2.70;;;2.30;99.90;;;;;;4979167;28;20217;-91
2021/03/12 09:31:22;;;;;;;3.97;3.07;;;2.30;99.90;;;;;;4997442;28;20200;-92
2021/03/12 09:33:54;;;;;;;6.53;3.20;;;2.30;99.90;;;;;;4988899;28;20227;-91
2021/03/12 09:36:29;;;;;;;5.60;3.00;;;2.30;99.90;;;;;;4987758;28;20290;-92
2021/03/12 09:39:20;;;;;;;3.57;2.70;;;2.30;99.90;;;;;;4982112;28;20206;-92
2021/03/12 09:41:59;;;;;;;3.10;2.33;;;2.30;99.90;;;;;;4983077;28;20229;-92
2021/03/12 09:44:30;;;;;;;4.43;2.37;;;2.20;99.90;;;;;;4980788;28;20612;-92
2021/03/12 09:47:08;;;;;;;3.33;2.13;;;2.20;99.90;;;;;;4989788;28;20245;-91
2021/03/12 09:49:42;;;;;;;4.53;3.00;;;2.20;99.90;;;;;;5000558;28;20209;-90
2021/03/12 09:52:15;;;;;;;3.57;2.60;;;2.20;99.90;;;;;;5002990;28;20233;-91
2021/03/12 09:54:49;;;;;;;4.47;2.43;;;2.20;99.90;;;;;;5003928;28;20299;-91
2021/03/12 09:57:24;;;;;;;4.43;2.57;;;2.20;99.90;;;;;;4964722;29;20203;-91
2021/03/12 09:59:55;;;;;;;3.70;2.43;;;2.20;99.90;;;;;;4946167;29;20222;-92
2021/03/12 10:02:28;;;;;;;4.87;2.67;;;2.30;99.90;;;;;;4980711;28;20270;-91
2021/03/12 10:05:03;;;;;;;2.70;2.00;;;2.30;99.90;;;;;;4969587;28;20211;-91
2021/03/12 10:07:46;;;;;;;3.50;2.07;;;2.30;99.90;;;;;;4959432;28;20250;-91
2021/03/12 10:10:29;;;;;;;2.47;2.03;;;2.30;99.90;;;;;;4959903;28;20208;-91
2021/03/12 10:13:04;;;;;;;2.40;1.70;;;2.30;99.90;;;;;;4969628;28;20222;-91
2021/03/12 10:15:39;;;;;;;3.40;1.90;;;2.30;99.90;;;;;;4977980;28;20241;-91
2021/03/12 10:18:19;;;;;;;1.73;1.57;;;2.10;99.90;;;;;;4978137;28;20217;-92
2021/03/12 10:21:11;;;;;;;3.53;1.53;;;2.10;99.90;;;;;;4979092;28;20220;-91
2021/03/12 10:23:43;;;;;;;3.40;1.80;;;2.20;99.90;;;;;;4960383;28;20207;-92
2021/03/12 10:26:16;;;;;;;3.73;1.93;;;2.20;99.90;;;;;;4959457;28;20214;-91
2021/03/12 10:28:50;;;;;;;5.30;1.87;;;2.20;99.90;;;;;;4960224;29;20235;-92
2021/03/12 10:31:21;;;;;;;3.03;1.80;;;2.10;99.90;;;;;;4967941;28;20290;-92
2021/03/12 10:33:52;;;;;;;2.33;1.67;;;2.10;99.90;;;;;;4978899;28;20239;-92
2021/03/12 10:36:23;;;;;;;2.50;2.07;;;2.10;99.90;;;;;;4978583;28;20282;-91
2021/03/12 10:38:54;;;;;;;2.67;1.80;;;2.10;99.90;;;;;;4978762;28;20238;-91
2021/03/12 10:41:26;;;;;;;2.20;1.67;;;2.10;99.90;;;;;;4997591;28;20245;-92
2021/03/12 10:44:01;;;;;;;2.40;1.53;;;2.00;99.90;;;;;;4992144;28;20652;-92
2021/03/12 10:46:37;;;;;;;2.27;1.60;;;2.00;99.90;;;;;;4976844;28;20241;-92
2021/03/12 10:49:08;;;;;;;2.47;1.93;;;2.00;99.90;;;;;;4977168;28;20301;-91
2021/03/12 10:51:42;;;;;;;3.00;2.13;;;2.00;99.90;;;;;;4979212;28;20221;-91
2021/03/12 10:54:13;;;;;;;3.20;2.00;;;2.00;99.90;;;;;;4980184;28;20282;-91
2021/03/12 10:56:52;;;;;;;2.30;1.83;;;2.00;99.90;;;;;;4983477;28;20207;-91
2021/03/12 10:59:25;;;;;;;2.80;2.10;;;1.90;99.90;;;;;;4993969;28;20291;-92
2021/03/12 11:01:57;;;;;;;1.77;1.63;;;1.90;99.90;;;;;;4997111;28;20226;-92
2021/03/12 11:04:28;;;;;;;2.53;2.00;;;1.90;99.90;;;;;;4996788;28;20258;-91
2021/03/12 11:06:59;;;;;;;3.77;1.97;;;1.90;99.90;;;;;;4990877;28;20242;-92
2021/03/12 11:09:30;;;;;;;2.93;2.00;;;1.90;99.90;;;;;;4994710;28;20201;-91
2021/03/12 11:12:01;;;;;;;2.67;1.80;;;1.80;99.90;;;;;;4981297;28;20214;-92
2021/03/12 11:14:34;;;;;;;3.73;1.80;;;1.80;99.90;;;;;;4960381;28;20234;-92
2021/03/12 11:17:05;;;;;;;5.07;1.67;;;1.80;99.90;;;;;;4961625;28;20214;-92
2021/03/12 11:19:36;;;;;;;3.93;1.70;;;1.80;99.90;;;;;;4979066;28;20277;-91
2021/03/12 11:22:07;;;;;;;2.53;2.00;;;1.80;99.90;;;;;;4978312;28;20215;-93
2021/03/12 11:24:38;;;;;;;2.10;1.70;;;1.80;99.90;;;;;;4967724;28;20216;-93
2021/03/12 11:27:09;;;;;;;3.73;2.00;;;1.80;99.90;;;;;;4959180;28;20378;-92
2021/03/12 11:29:41;;;;;;;2.30;1.53;;;1.80;99.90;;;;;;4959591;28;20222;-92
2021/03/12 11:32:13;;;;;;;2.23;1.77;;;1.80;99.90;;;;;;4963823;28;20221;-93
2021/03/12 11:34:44;;;;;;;4.03;1.80;;;1.80;99.90;;;;;;4978603;28;20234;-92
2021/03/12 11:37:15;;;;;;;2.23;1.67;;;1.80;99.90;;;;;;4979658;28;20242;-93
2021/03/12 11:39:45;;;;;;;2.77;1.77;;;1.80;99.90;;;;;;4978469;28;20211;-92
2021/03/12 11:42:16;;;;;;;2.67;1.70;;;1.80;99.90;;;;;;4990709;28;20217;-92
2021/03/12 11:44:49;;;;;;;3.13;2.00;;;1.80;99.90;;;;;;5002643;28;20214;-93
2021/03/12 11:47:20;;;;;;;2.33;1.80;;;1.80;99.90;;;;;;4992154;28;20209;-92
2021/03/12 11:49:51;;;;;;;3.67;1.70;;;1.70;99.90;;;;;;4983317;28;20293;-92
2021/03/12 11:52:25;;;;;;;3.13;1.60;;;1.70;99.90;;;;;;4982502;28;20285;-92
2021/03/12 11:54:57;;;;;;;4.10;1.43;;;1.70;99.90;;;;;;4980626;28;20639;-92
2021/03/12 11:57:28;;;;;;;2.20;1.40;;;1.70;99.90;;;;;;4979041;28;20236;-92
2021/03/12 12:00:07;;;;;;;2.57;1.60;;;1.70;99.90;;;;;;4978023;28;20218;-92
2021/03/12 12:02:38;;;;;;;3.50;1.57;;;1.60;99.90;;;;;;4978303;28;20221;-91
2021/03/12 12:05:12;;;;;;;1.97;1.43;;;1.60;99.90;;;;;;4978024;28;20305;-91
2021/03/12 12:07:44;;;;;;;3.77;1.83;;;1.60;99.90;;;;;;4979300;28;20655;-92
2021/03/12 12:10:16;;;;;;;1.70;1.40;;;1.60;99.90;;;;;;4977643;28;20285;-92
2021/03/12 12:12:48;;;;;;;3.50;1.83;;;1.50;99.90;;;;;;4979701;28;20655;-91
2021/03/12 12:15:20;;;;;;;3.17;1.83;;;1.40;99.90;;;;;;4979911;28;20588;-90
2021/03/12 12:17:52;;;;;;;2.27;1.43;;;1.40;99.90;;;;;;4991332;28;20278;-91
2021/03/12 12:20:23;;;;;;;1.87;1.33;;;1.30;99.90;;;;;;5001744;28;20202;-91
2021/03/12 12:22:55;;;;;;;4.47;1.53;;;1.30;99.90;;;;;;5006601;28;20213;-91
2021/03/12 12:25:27;;;;;;;2.73;1.90;;;1.30;99.90;;;;;;5004240;28;20288;-91
2021/03/12 12:27:58;;;;;;;2.50;1.60;;;1.30;99.90;;;;;;4982604;28;20290;-91
2021/03/12 12:30:31;;;;;;;2.23;1.50;;;1.30;99.90;;;;;;4977359;28;20214;-91
2021/03/12 12:33:04;;;;;;;2.73;1.83;;;1.20;99.90;;;;;;4977281;28;20239;-92
2021/03/12 12:35:37;;;;;;;2.63;1.50;;;1.20;99.90;;;;;;4995041;28;20625;-93
2021/03/12 12:38:09;;;;;;;3.27;1.80;;;1.20;99.90;;;;;;4998461;28;20281;-92
2021/03/12 12:40:40;;;;;;;1.90;1.27;;;1.30;99.90;;;;;;4979556;28;20246;-92
2021/03/12 12:43:13;;;;;;;2.47;1.40;;;1.20;99.90;;;;;;4977562;28;20218;-93
2021/03/12 12:45:46;;;;;;;1.97;1.40;;;1.20;99.90;;;;;;4976004;28;20215;-93
2021/03/12 12:48:16;;;;;;;5.23;1.90;;;1.20;99.90;;;;;;4976002;28;20214;-94
2021/03/12 12:50:47;;;;;;;2.43;1.57;;;1.20;99.90;;;;;;4977035;28;20218;-92
2021/03/12 12:53:17;;;;;;;1.90;1.60;;;1.10;99.90;;;;;;4989237;28;20235;-93
2021/03/12 12:55:48;;;;;;;2.40;1.53;;;1.10;99.90;;;;;;4997948;28;20288;-93
2021/03/12 12:58:20;;;;;;;3.50;1.90;;;1.10;99.90;;;;;;4997037;28;20211;-93
2021/03/12 13:00:53;;;;;;;2.03;1.70;;;1.10;99.90;;;;;;5007869;28;20233;-92
2021/03/12 13:03:25;;;;;;;3.13;1.77;;;1.10;99.90;;;;;;4997630;28;20201;-92
2021/03/12 13:05:56;;;;;;;2.00;1.50;;;1.00;99.90;;;;;;4996462;28;20211;-93
2021/03/12 13:08:26;;;;;;;3.43;1.50;;;1.00;99.90;;;;;;4997038;28;20210;-92
2021/03/12 13:10:57;;;;;;;2.43;1.57;;;1.00;99.90;;;;;;5009157;28;20202;-92
2021/03/12 13:13:28;;;;;;;3.60;1.63;;;1.00;99.90;;;;;;5017074;28;20214;-93
2021/03/12 13:16:04;;;;;;;4.60;1.67;;;1.00;99.90;;;;;;5016863;28;20229;-91
2021/03/12 13:18:35;;;;;;;2.10;1.60;;;0.90;99.90;;;;;;5012970;28;20234;-93
2021/03/12 13:21:08;;;;;;;2.17;1.40;;;0.90;99.90;;;;;;4979605;28;20266;-91
2021/03/12 13:23:39;;;;;;;1.97;1.53;;;1.00;99.90;;;;;;4980668;28;20253;-91
2021/03/12 13:26:11;;;;;;;3.40;1.90;;;1.00;99.90;;;;;;4978937;28;20215;-92
2021/03/12 13:28:42;;;;;;;2.67;1.43;;;1.00;99.90;;;;;;4978549;28;20207;-92
2021/03/12 13:31:17;;;;;;;2.43;1.40;;;1.00;99.90;;;;;;4977504;28;20231;-92